createdAt,value
2023-02-23T00:00:45.464Z,16.25
2023-02-23T00:03:14.557Z,15.90
2023-02-23T00:05:44.477Z,15.68
2023-02-23T00:08:16.169Z,20.58
2023-02-23T00:10:45.713Z,22.50
2023-02-23T00:13:14.905Z,14.48
2023-02-23T00:15:44.261Z,17.52
2023-02-23T00:18:12.948Z,16.73
2023-02-23T00:20:48.488Z,16.38
2023-02-23T00:23:17.637Z,15.70
2023-02-23T00:25:47.849Z,15.40
2023-02-23T00:28:16.578Z,25.25
2023-02-23T00:30:46.712Z,18.23
2023-02-23T00:33:16.797Z,15.18
2023-02-23T00:35:43.506Z,17.92
2023-02-23T00:38:10.233Z,16.75
2023-02-23T00:40:43.126Z,17.00
2023-02-23T00:43:09.905Z,20.15
2023-02-23T00:45:43.678Z,17.50
2023-02-23T00:48:16.404Z,19.80
2023-02-23T00:50:46.030Z,17.02
2023-02-23T00:53:15.313Z,17.83
2023-02-23T00:55:44.893Z,17.80
2023-02-23T00:58:15.987Z,17.23
2023-02-23T01:00:53.467Z,20.65
2023-02-23T01:03:20.539Z,22.55
2023-02-23T01:05:52.039Z,24.95
2023-02-23T01:08:19.027Z,16.83
2023-02-23T01:10:52.684Z,25.65
2023-02-23T01:13:24.807Z,24.52
2023-02-23T01:15:54.404Z,16.70
2023-02-23T01:18:24.511Z,17.15
2023-02-23T01:20:53.861Z,21.35
2023-02-23T01:23:21.771Z,20.20
2023-02-23T01:26:00.519Z,21.45
2023-02-23T01:28:30.735Z,20.95
2023-02-23T01:30:57.641Z,18.15
2023-02-23T01:33:25.783Z,19.02
2023-02-23T01:36:00.873Z,23.00
2023-02-23T01:38:37.056Z,24.88
2023-02-23T01:41:13.275Z,24.40
2023-02-23T01:44:12.299Z,18.27
2023-02-23T01:46:49.354Z,16.75
2023-02-23T01:49:37.226Z,18.80
2023-02-23T01:52:19.327Z,17.58
2023-02-23T01:54:58.574Z,19.75
2023-02-23T01:57:27.192Z,18.77
2023-02-23T01:59:55.748Z,24.55
2023-02-23T02:02:33.518Z,19.75
2023-02-23T02:05:11.357Z,21.35
2023-02-23T02:07:42.212Z,19.85
2023-02-23T02:10:15.160Z,22.92
2023-02-23T02:12:59.660Z,22.98
2023-02-23T02:15:53.726Z,27.65
2023-02-23T02:18:55.399Z,19.30
2023-02-23T02:21:48.647Z,25.38
2023-02-23T02:25:12.657Z,26.30
2023-02-23T02:28:32.879Z,23.08
2023-02-23T02:31:45.108Z,21.85
2023-02-23T02:34:48.544Z,27.05
2023-02-23T02:38:18.598Z,32.90
2023-02-23T02:41:18.708Z,23.77
2023-02-23T02:44:45.644Z,33.78
2023-02-23T02:47:34.284Z,29.17
2023-02-23T02:50:46.320Z,30.63
2023-02-23T02:54:04.167Z,30.90
2023-02-23T02:56:33.482Z,35.03
2023-02-23T02:59:03.583Z,31.95
2023-02-23T03:01:49.705Z,27.17
2023-02-23T03:04:54.023Z,32.67
2023-02-23T03:07:54.979Z,30.40
2023-02-23T03:11:14.663Z,31.05
2023-02-23T03:14:48.587Z,33.10
2023-02-23T03:18:04.725Z,31.55
2023-02-23T03:20:52.717Z,41.92
2023-02-23T03:24:12.205Z,29.67
2023-02-23T03:27:33.719Z,34.30
2023-02-23T03:31:04.788Z,34.40
2023-02-23T03:34:31.668Z,30.73
2023-02-23T03:37:44.787Z,37.50
2023-02-23T03:40:44.253Z,36.60
2023-02-23T03:43:43.772Z,36.67
2023-02-23T03:46:37.772Z,33.42
2023-02-23T03:49:32.697Z,40.88
2023-02-23T03:55:51.123Z,48.00
2023-02-23T03:58:50.425Z,43.65
2023-02-23T04:01:48.863Z,53.45
2023-02-23T04:04:34.240Z,38.90
2023-02-23T04:07:28.604Z,51.10
2023-02-23T04:10:13.989Z,50.10
2023-02-23T04:13:16.666Z,51.72
2023-02-23T04:16:13.653Z,53.72
2023-02-23T04:18:44.440Z,44.88
2023-02-23T04:21:20.105Z,51.88
2023-02-23T04:23:47.890Z,50.60
2023-02-23T04:26:14.618Z,48.20
2023-02-23T04:28:47.482Z,58.35
2023-02-23T04:31:14.438Z,59.42
2023-02-23T04:33:44.777Z,48.58
2023-02-23T04:36:15.050Z,50.53
2023-02-23T04:38:47.834Z,54.78
2023-02-23T04:41:14.773Z,57.75
2023-02-23T04:43:44.584Z,52.40
2023-02-23T04:46:11.382Z,50.72
2023-02-23T04:48:45.484Z,51.92
2023-02-23T04:51:14.360Z,59.70
2023-02-23T04:53:44.167Z,58.35
2023-02-23T04:56:31.778Z,53.05
2023-02-23T04:58:58.496Z,57.75
2023-02-23T05:01:27.948Z,63.65
2023-02-23T05:03:55.740Z,57.90
2023-02-23T05:06:22.438Z,61.40
2023-02-23T05:08:49.411Z,65.65
2023-02-23T05:11:16.254Z,71.65
2023-02-23T05:13:43.243Z,69.32
2023-02-23T05:16:14.866Z,71.18
2023-02-23T05:18:49.683Z,67.72
2023-02-23T05:21:21.890Z,69.70
2023-02-23T05:23:51.387Z,73.03
2023-02-23T05:26:18.786Z,68.10
2023-02-23T05:28:47.339Z,68.13
2023-02-23T05:31:24.510Z,68.93
2023-02-23T05:33:54.283Z,69.55
2023-02-23T05:36:22.203Z,79.80
2023-02-23T05:38:49.422Z,61.63
2023-02-23T05:41:23.728Z,64.97
2023-02-23T05:46:30.601Z,57.72
2023-02-23T05:49:02.621Z,66.00
2023-02-23T05:51:35.749Z,68.03
2023-02-23T05:54:05.559Z,70.20
2023-02-23T05:56:34.937Z,68.20
2023-02-23T05:59:04.442Z,66.78
2023-02-23T06:01:34.207Z,72.57
2023-02-23T06:04:01.035Z,79.07
2023-02-23T06:06:50.692Z,69.70
2023-02-23T06:09:17.627Z,68.60
2023-02-23T06:11:47.430Z,75.90
2023-02-23T06:14:18.578Z,80.85
2023-02-23T06:16:45.566Z,77.78
2023-02-23T06:19:12.393Z,68.25
2023-02-23T06:21:47.770Z,83.88
2023-02-23T06:24:16.588Z,79.45
2023-02-23T06:26:44.524Z,89.43
2023-02-23T06:29:12.203Z,90.75
2023-02-23T06:32:02.617Z,83.70
2023-02-23T06:34:36.772Z,79.38
2023-02-23T06:37:04.018Z,81.80
2023-02-23T06:39:31.036Z,81.45
2023-02-23T06:42:00.394Z,86.10
2023-02-23T06:44:29.716Z,86.13
2023-02-23T06:46:58.834Z,88.70
2023-02-23T06:49:25.572Z,100.93
2023-02-23T06:51:52.211Z,86.85
2023-02-23T06:54:19.473Z,83.93
2023-02-23T06:56:50.060Z,105.38
2023-02-23T06:59:19.918Z,85.97
2023-02-23T07:01:51.098Z,90.75
2023-02-23T07:04:23.533Z,94.28
2023-02-23T07:06:50.460Z,105.43
2023-02-23T07:09:24.121Z,95.80
2023-02-23T07:11:54.528Z,87.05
2023-02-23T07:14:26.491Z,98.90
2023-02-23T07:16:54.532Z,97.78
2023-02-23T07:19:21.449Z,98.95
2023-02-23T07:21:48.345Z,101.63
2023-02-23T07:24:15.337Z,107.72
2023-02-23T07:26:49.359Z,97.40
2023-02-23T07:29:18.782Z,126.15
2023-02-23T07:31:50.107Z,99.28
2023-02-23T07:34:20.115Z,120.28
2023-02-23T07:36:49.757Z,111.82
2023-02-23T07:39:18.562Z,107.25
2023-02-23T07:41:49.428Z,103.18
2023-02-23T07:44:21.174Z,96.05
2023-02-23T07:46:47.967Z,84.47
2023-02-23T07:49:14.709Z,90.38
2023-02-23T07:51:47.830Z,88.03
2023-02-23T07:54:15.636Z,82.00
2023-02-23T07:56:48.834Z,78.82
2023-02-23T07:59:21.807Z,83.70
2023-02-23T08:01:57.425Z,88.00
2023-02-23T08:04:24.401Z,81.60
2023-02-23T08:06:51.251Z,85.97
2023-02-23T08:09:32.235Z,90.53
2023-02-23T08:11:58.878Z,99.53
2023-02-23T08:14:25.589Z,104.00
2023-02-23T08:16:52.309Z,99.97
2023-02-23T08:19:25.065Z,66.85
2023-02-23T08:21:52.546Z,82.95
2023-02-23T08:24:23.013Z,92.15
2023-02-23T08:26:50.339Z,85.75
2023-02-23T08:29:19.498Z,85.72
2023-02-23T08:31:46.431Z,95.63
2023-02-23T08:34:16.411Z,103.97
2023-02-23T08:36:45.790Z,94.97
2023-02-23T08:39:13.856Z,105.97
2023-02-23T08:41:47.445Z,103.70
2023-02-23T08:44:16.532Z,120.03
2023-02-23T08:46:46.062Z,109.75
2023-02-23T08:49:12.816Z,110.38
2023-02-23T08:51:51.898Z,118.75
2023-02-23T08:54:22.054Z,125.60
2023-02-23T08:56:48.790Z,125.78
2023-02-23T08:59:15.714Z,130.68
2023-02-23T09:01:48.111Z,125.93
2023-02-23T09:04:14.798Z,141.65
2023-02-23T09:06:50.186Z,128.02
2023-02-23T09:09:22.561Z,127.25
2023-02-23T09:11:49.427Z,126.55
2023-02-23T09:14:18.248Z,134.32
2023-02-23T09:16:48.494Z,130.15
2023-02-23T09:19:18.555Z,138.18
2023-02-23T09:21:48.285Z,124.22
2023-02-23T09:24:15.098Z,138.07
2023-02-23T09:26:45.958Z,133.52
2023-02-23T09:29:28.037Z,135.15
2023-02-23T09:31:58.157Z,151.52
2023-02-23T09:34:30.713Z,157.43
2023-02-23T09:37:04.545Z,163.18
2023-02-23T09:39:38.430Z,158.82
2023-02-23T09:42:35.666Z,158.95
2023-02-23T09:45:33.726Z,167.50
2023-02-23T09:48:19.445Z,159.60
2023-02-23T09:51:06.256Z,148.18
2023-02-23T10:20:37.507Z,99.28
2023-02-23T10:23:15.504Z,110.55
2023-02-23T10:25:55.883Z,105.68
2023-02-23T10:28:30.914Z,101.55
2023-02-23T10:30:58.321Z,101.80
2023-02-23T10:33:44.740Z,98.28
2023-02-23T10:36:35.587Z,97.00
2023-02-23T10:39:08.157Z,88.40
2023-02-23T10:41:48.399Z,93.47
2023-02-23T10:44:28.589Z,83.80
2023-02-23T10:47:13.013Z,82.38
2023-02-23T10:49:55.941Z,70.25
2023-02-23T10:52:51.129Z,74.75
2023-02-23T10:55:28.901Z,71.85
2023-02-23T10:58:17.761Z,79.68
2023-02-23T11:01:10.739Z,80.47
2023-02-23T11:04:05.683Z,72.38
2023-02-23T11:06:44.494Z,67.40
2023-02-23T11:09:43.880Z,76.30
2023-02-23T11:12:28.499Z,70.20
2023-02-23T11:15:01.618Z,67.55
2023-02-23T11:17:42.509Z,77.32
2023-02-23T11:20:21.044Z,80.75
2023-02-23T11:22:50.750Z,72.85
2023-02-23T11:25:31.681Z,72.75
2023-02-23T11:28:00.294Z,69.90
2023-02-23T11:33:36.162Z,76.47
2023-02-23T11:36:35.215Z,66.72
2023-02-23T11:39:19.721Z,60.97
2023-02-23T11:42:34.187Z,63.38
2023-02-23T11:45:20.918Z,59.03
2023-02-23T11:47:54.259Z,59.25
2023-02-23T11:50:33.414Z,62.50
2023-02-23T11:53:19.457Z,60.13
2023-02-23T11:56:12.600Z,57.95
2023-02-23T11:58:54.520Z,61.13
2023-02-23T12:02:22.461Z,63.45
2023-02-23T12:05:05.046Z,65.82
2023-02-23T12:07:59.909Z,57.90
2023-02-23T12:11:08.384Z,52.85
2023-02-23T12:14:47.079Z,55.47
2023-02-23T12:17:53.920Z,65.15
2023-02-23T12:20:32.489Z,64.75
2023-02-23T12:23:22.054Z,64.55
2023-02-23T12:26:17.560Z,75.18
2023-02-23T12:29:13.024Z,54.47
2023-02-23T12:32:12.843Z,52.60
2023-02-23T12:35:21.177Z,52.67
2023-02-23T12:38:27.761Z,50.65
2023-02-23T12:41:11.729Z,48.55
2023-02-23T12:43:51.481Z,48.65
2023-02-23T12:46:47.544Z,46.85
2023-02-23T12:50:07.259Z,46.55
2023-02-23T12:52:53.772Z,46.45
2023-02-23T12:56:38.995Z,47.28
2023-02-23T13:00:26.725Z,45.42
2023-02-23T13:03:44.962Z,39.60
2023-02-23T13:07:18.034Z,43.58
2023-02-23T13:10:22.245Z,41.45
2023-02-23T13:12:59.018Z,39.53
2023-02-23T13:16:00.307Z,38.83
2023-02-23T13:19:29.616Z,37.30
2023-02-23T13:22:37.414Z,40.67
2023-02-23T13:25:55.570Z,41.45
2023-02-23T13:29:06.551Z,35.45
2023-02-23T13:31:52.696Z,41.00
2023-02-23T13:34:34.921Z,39.70
2023-02-23T13:40:55.079Z,41.70
2023-02-23T13:43:54.565Z,34.05
2023-02-23T13:46:51.067Z,37.78
2023-02-23T13:49:58.201Z,40.15
2023-02-23T13:53:09.889Z,37.88
2023-02-23T13:55:54.901Z,37.03
2023-02-23T13:58:34.688Z,41.40
2023-02-23T14:01:32.170Z,32.90
2023-02-23T14:04:18.553Z,35.25
2023-02-23T14:07:34.249Z,37.85
2023-02-23T14:10:19.811Z,36.95
2023-02-23T14:13:43.611Z,38.60
2023-02-23T14:16:34.809Z,39.42
2023-02-23T14:19:36.674Z,39.78
2023-02-23T14:22:32.308Z,40.83
2023-02-23T14:25:36.647Z,38.15
2023-02-23T14:28:39.068Z,32.43
2023-02-23T14:31:15.960Z,30.33
2023-02-23T14:33:42.718Z,29.98
2023-02-23T14:36:21.855Z,28.23
2023-02-23T14:39:00.501Z,28.73
2023-02-23T14:42:19.784Z,26.38
2023-02-23T14:44:51.679Z,24.73
2023-02-23T14:47:32.586Z,27.05
2023-02-23T14:50:11.236Z,23.65
2023-02-23T14:52:43.986Z,26.77
2023-02-23T14:55:45.724Z,28.27
2023-02-23T14:58:36.740Z,32.05
2023-02-23T15:04:22.684Z,27.58
2023-02-23T15:07:01.697Z,26.40
2023-02-23T15:09:46.024Z,22.25
2023-02-23T15:12:38.826Z,25.73
2023-02-23T15:15:22.448Z,34.70
2023-02-23T15:17:55.102Z,21.15
2023-02-23T15:23:12.485Z,22.17
2023-02-23T15:25:47.940Z,25.60
2023-02-23T15:28:32.998Z,26.42
2023-02-23T15:31:09.459Z,21.52
2023-02-23T15:33:37.383Z,22.27
2023-02-23T15:36:44.040Z,24.75
2023-02-23T15:39:21.802Z,24.63
2023-02-23T15:41:50.564Z,22.95
2023-02-23T15:44:43.670Z,26.20
2023-02-23T15:47:28.354Z,27.00
2023-02-23T15:50:37.293Z,17.05
2023-02-23T15:53:43.718Z,21.40
2023-02-23T15:56:28.214Z,30.40
2023-02-23T15:59:13.372Z,23.42
2023-02-23T16:02:03.589Z,18.50
2023-02-23T16:04:47.032Z,19.73
2023-02-23T16:07:18.388Z,21.85
2023-02-23T16:10:23.131Z,19.02
2023-02-23T16:12:54.092Z,17.80
2023-02-23T16:15:35.952Z,14.02
2023-02-23T16:18:24.272Z,20.52
2023-02-23T16:21:01.849Z,17.15
2023-02-23T16:23:51.044Z,20.10
2023-02-23T16:26:33.793Z,18.98
2023-02-23T16:29:12.554Z,19.45
2023-02-23T16:31:58.056Z,13.00
2023-02-23T16:35:22.500Z,12.07
2023-02-23T16:38:03.686Z,7.60
2023-02-23T16:40:32.892Z,8.75
2023-02-23T16:42:59.713Z,14.10
2023-02-23T16:45:32.184Z,10.57
2023-02-23T16:48:03.399Z,17.80
2023-02-23T16:50:43.194Z,9.18
2023-02-23T16:53:16.833Z,10.70
2023-02-23T16:55:53.845Z,18.42
2023-02-23T16:58:36.061Z,9.95
2023-02-23T17:01:03.220Z,14.93
2023-02-23T17:06:16.561Z,17.38
2023-02-23T17:08:56.183Z,10.75
2023-02-23T17:11:24.812Z,12.52
2023-02-23T17:13:51.825Z,13.57
2023-02-23T17:16:19.607Z,17.52
2023-02-23T17:18:46.585Z,12.25
2023-02-23T17:21:25.303Z,14.52
2023-02-23T17:23:53.705Z,16.58
2023-02-23T17:26:25.949Z,10.57
2023-02-23T17:28:53.894Z,10.80
2023-02-23T17:31:23.430Z,17.77
2023-02-23T17:33:51.824Z,13.18
2023-02-23T17:36:18.747Z,14.73
2023-02-23T17:38:46.061Z,9.93
2023-02-23T17:41:19.190Z,14.95
2023-02-23T17:43:53.478Z,14.30
2023-02-23T17:46:23.085Z,12.48
2023-02-23T17:48:55.172Z,13.07
2023-02-23T17:51:23.451Z,18.85
2023-02-23T17:53:53.435Z,14.25
2023-02-23T17:56:21.847Z,15.80
2023-02-23T17:58:57.829Z,19.38
2023-02-23T18:01:36.136Z,10.85
2023-02-23T18:04:03.989Z,12.13
2023-02-23T18:06:30.998Z,10.13
2023-02-23T18:08:58.125Z,14.88
2023-02-23T18:11:28.183Z,21.02
2023-02-23T18:14:03.936Z,10.88
2023-02-23T18:16:36.105Z,13.38
2023-02-23T18:19:02.910Z,11.60
2023-02-23T18:21:30.392Z,13.32
2023-02-23T18:23:57.105Z,14.93
2023-02-23T18:26:29.480Z,14.77
2023-02-23T18:28:59.104Z,19.05
2023-02-23T18:31:28.430Z,14.73
2023-02-23T18:34:00.293Z,15.13
2023-02-23T18:36:36.124Z,9.07
2023-02-23T18:39:07.677Z,19.98
2023-02-23T18:41:43.363Z,10.95
2023-02-23T18:44:19.022Z,13.10
2023-02-23T18:46:46.597Z,13.32
2023-02-23T18:49:21.649Z,17.95
2023-02-23T18:52:09.165Z,13.32
2023-02-23T18:54:43.203Z,9.25
2023-02-23T18:57:12.707Z,15.18
2023-02-23T21:24:52.527Z,8.85
2023-02-23T21:52:16.470Z,7.78
2023-02-23T22:22:48.869Z,8.13
2023-02-23T22:25:17.125Z,6.82
2023-02-23T22:27:48.156Z,9.90
2023-02-23T22:30:24.475Z,11.40
2023-02-23T22:32:51.581Z,9.07
2023-02-23T22:35:18.606Z,9.30
2023-02-23T22:37:48.316Z,8.40
2023-02-23T22:40:21.078Z,6.95
2023-02-23T22:42:52.313Z,7.03
2023-02-23T22:45:19.111Z,7.38
2023-02-23T22:48:01.454Z,6.32
2023-02-23T22:50:28.737Z,7.82
2023-02-23T22:52:55.402Z,7.03
2023-02-23T22:55:30.554Z,5.10
2023-02-23T22:57:59.845Z,6.28
2023-02-23T23:00:27.891Z,7.60
2023-02-23T23:02:55.411Z,8.02
2023-02-23T23:05:31.356Z,6.45
2023-02-23T23:07:59.066Z,7.25
2023-02-23T23:10:28.937Z,5.75
2023-02-23T23:12:57.063Z,9.77
2023-02-23T23:15:24.431Z,10.52
2023-02-23T23:17:52.790Z,13.05
2023-02-23T23:20:29.059Z,6.95
2023-02-23T23:22:57.306Z,13.35
2023-02-23T23:25:29.090Z,11.35
2023-02-23T23:27:55.863Z,10.70
2023-02-23T23:30:29.101Z,5.28
2023-02-23T23:32:57.944Z,6.67
2023-02-23T23:35:28.978Z,5.00
2023-02-23T23:38:00.265Z,8.38
2023-02-23T23:40:30.170Z,7.10
2023-02-23T23:42:56.847Z,3.88
2023-02-23T23:45:24.388Z,8.23
2023-02-23T23:47:51.318Z,6.22
2023-02-23T23:50:18.084Z,7.90
2023-02-23T23:52:47.429Z,4.00
2023-02-23T23:57:56.193Z,8.07
